sensor_id;sensor_type;location;lat;lon;timestamp;P1;durP1;ratioP1;P2;durP2;ratioP2
78027;SDS011;67235;45.638;11.714;2023-06-26T00:01:09;12.88;;;7.50;;
78027;SDS011;67235;45.638;11.714;2023-06-26T00:04:00;13.50;;;8.15;;
78027;SDS011;67235;45.638;11.714;2023-06-26T00:06:26;16.95;;;8.32;;
78027;SDS011;67235;45.638;11.714;2023-06-26T00:08:53;15.98;;;7.93;;
78027;SDS011;67235;45.638;11.714;2023-06-26T00:11:20;16.42;;;7.95;;
78027;SDS011;67235;45.638;11.714;2023-06-26T00:13:48;14.02;;;8.20;;
78027;SDS011;67235;45.638;11.714;2023-06-26T00:16:14;13.05;;;7.95;;
78027;SDS011;67235;45.638;11.714;2023-06-26T00:18:41;13.98;;;7.40;;
78027;SDS011;67235;45.638;11.714;2023-06-26T00:21:07;11.88;;;7.22;;
78027;SDS011;67235;45.638;11.714;2023-06-26T00:23:33;12.93;;;6.47;;
78027;SDS011;67235;45.638;11.714;2023-06-26T00:26:02;12.05;;;6.00;;
78027;SDS011;67235;45.638;11.714;2023-06-26T00:28:29;16.63;;;6.28;;
78027;SDS011;67235;45.638;11.714;2023-06-26T00:30:56;11.50;;;7.03;;
78027;SDS011;67235;45.638;11.714;2023-06-26T00:33:24;13.48;;;7.07;;
78027;SDS011;67235;45.638;11.714;2023-06-26T00:35:50;12.60;;;6.93;;
78027;SDS011;67235;45.638;11.714;2023-06-26T00:38:16;12.05;;;7.70;;
78027;SDS011;67235;45.638;11.714;2023-06-26T00:40:42;13.17;;;7.27;;
78027;SDS011;67235;45.638;11.714;2023-06-26T00:43:09;13.85;;;7.22;;
78027;SDS011;67235;45.638;11.714;2023-06-26T00:45:35;13.30;;;7.82;;
78027;SDS011;67235;45.638;11.714;2023-06-26T00:48:01;13.80;;;7.55;;
78027;SDS011;67235;45.638;11.714;2023-06-26T00:50:28;13.40;;;6.67;;
78027;SDS011;67235;45.638;11.714;2023-06-26T00:52:54;14.32;;;9.35;;
78027;SDS011;67235;45.638;11.714;2023-06-26T00:55:25;14.07;;;9.35;;
78027;SDS011;67235;45.638;11.714;2023-06-26T00:57:54;15.02;;;9.57;;
78027;SDS011;67235;45.638;11.714;2023-06-26T01:00:21;13.93;;;9.77;;
78027;SDS011;67235;45.638;11.714;2023-06-26T01:02:47;17.10;;;9.30;;
78027;SDS011;67235;45.638;11.714;2023-06-26T01:05:13;16.50;;;9.65;;
78027;SDS011;67235;45.638;11.714;2023-06-26T01:07:49;14.20;;;10.40;;
78027;SDS011;67235;45.638;11.714;2023-06-26T01:10:16;16.77;;;10.40;;
78027;SDS011;67235;45.638;11.714;2023-06-26T01:12:42;15.80;;;10.95;;
78027;SDS011;67235;45.638;11.714;2023-06-26T01:15:08;13.23;;;8.40;;
78027;SDS011;67235;45.638;11.714;2023-06-26T01:17:37;15.60;;;9.63;;
78027;SDS011;67235;45.638;11.714;2023-06-26T01:20:05;14.45;;;9.40;;
78027;SDS011;67235;45.638;11.714;2023-06-26T01:22:37;19.92;;;10.88;;
78027;SDS011;67235;45.638;11.714;2023-06-26T01:25:29;17.08;;;11.00;;
78027;SDS011;67235;45.638;11.714;2023-06-26T01:28:15;16.52;;;10.30;;
78027;SDS011;67235;45.638;11.714;2023-06-26T01:30:43;15.80;;;10.63;;
78027;SDS011;67235;45.638;11.714;2023-06-26T01:33:12;18.65;;;10.40;;
78027;SDS011;67235;45.638;11.714;2023-06-26T01:35:39;17.30;;;10.52;;
78027;SDS011;67235;45.638;11.714;2023-06-26T01:38:13;15.50;;;10.40;;
78027;SDS011;67235;45.638;11.714;2023-06-26T01:40:42;18.27;;;10.90;;
78027;SDS011;67235;45.638;11.714;2023-06-26T01:45:54;15.75;;;11.40;;
78027;SDS011;67235;45.638;11.714;2023-06-26T01:48:55;17.35;;;10.73;;
78027;SDS011;67235;45.638;11.714;2023-06-26T01:51:54;17.10;;;10.27;;
78027;SDS011;67235;45.638;11.714;2023-06-26T01:54:42;16.20;;;10.90;;
78027;SDS011;67235;45.638;11.714;2023-06-26T01:57:41;16.63;;;10.82;;
78027;SDS011;67235;45.638;11.714;2023-06-26T02:00:11;16.75;;;11.43;;
78027;SDS011;67235;45.638;11.714;2023-06-26T02:02:42;17.65;;;11.18;;
78027;SDS011;67235;45.638;11.714;2023-06-26T02:05:11;20.77;;;11.27;;
78027;SDS011;67235;45.638;11.714;2023-06-26T02:07:42;18.17;;;10.65;;
78027;SDS011;67235;45.638;11.714;2023-06-26T02:10:14;15.85;;;9.77;;
78027;SDS011;67235;45.638;11.714;2023-06-26T02:12:42;15.98;;;10.25;;
78027;SDS011;67235;45.638;11.714;2023-06-26T02:15:18;14.15;;;8.85;;
78027;SDS011;67235;45.638;11.714;2023-06-26T02:17:55;16.95;;;9.35;;
78027;SDS011;67235;45.638;11.714;2023-06-26T02:23:59;13.82;;;8.40;;
78027;SDS011;67235;45.638;11.714;2023-06-26T02:26:40;14.90;;;7.78;;
78027;SDS011;67235;45.638;11.714;2023-06-26T02:29:45;12.10;;;7.15;;
78027;SDS011;67235;45.638;11.714;2023-06-26T02:32:31;13.38;;;7.95;;
78027;SDS011;67235;45.638;11.714;2023-06-26T02:35:47;13.25;;;6.82;;
78027;SDS011;67235;45.638;11.714;2023-06-26T02:38:24;13.48;;;6.85;;
78027;SDS011;67235;45.638;11.714;2023-06-26T02:41:09;12.05;;;7.13;;
78027;SDS011;67235;45.638;11.714;2023-06-26T02:47:07;10.30;;;6.85;;
78027;SDS011;67235;45.638;11.714;2023-06-26T02:57:51;12.38;;;7.45;;
78027;SDS011;67235;45.638;11.714;2023-06-26T03:08:23;12.35;;;6.63;;
78027;SDS011;67235;45.638;11.714;2023-06-26T03:38:54;10.65;;;6.53;;
78027;SDS011;67235;45.638;11.714;2023-06-26T03:42:27;9.15;;;5.45;;
78027;SDS011;67235;45.638;11.714;2023-06-26T03:58:56;13.48;;;5.43;;
78027;SDS011;67235;45.638;11.714;2023-06-26T04:02:22;8.82;;;4.75;;
78027;SDS011;67235;45.638;11.714;2023-06-26T04:05:24;8.43;;;5.00;;
78027;SDS011;67235;45.638;11.714;2023-06-26T04:10:52;8.05;;;4.07;;
78027;SDS011;67235;45.638;11.714;2023-06-26T04:14:08;7.82;;;4.53;;
78027;SDS011;67235;45.638;11.714;2023-06-26T05:50:41;8.13;;;4.60;;
78027;SDS011;67235;45.638;11.714;2023-06-26T05:55:58;11.10;;;4.25;;
78027;SDS011;67235;45.638;11.714;2023-06-26T06:12:26;7.80;;;3.90;;
78027;SDS011;67235;45.638;11.714;2023-06-26T06:20:19;10.93;;;4.20;;
78027;SDS011;67235;45.638;11.714;2023-06-26T06:35:10;8.40;;;4.47;;
78027;SDS011;67235;45.638;11.714;2023-06-26T06:38:25;10.55;;;4.68;;
78027;SDS011;67235;45.638;11.714;2023-06-26T06:40:58;9.40;;;5.20;;
78027;SDS011;67235;45.638;11.714;2023-06-26T06:43:35;8.27;;;5.05;;
78027;SDS011;67235;45.638;11.714;2023-06-26T06:46:11;8.55;;;4.90;;
78027;SDS011;67235;45.638;11.714;2023-06-26T06:48:37;9.17;;;5.10;;
78027;SDS011;67235;45.638;11.714;2023-06-26T06:53:47;9.10;;;5.28;;
78027;SDS011;67235;45.638;11.714;2023-06-26T06:56:19;9.43;;;5.43;;
78027;SDS011;67235;45.638;11.714;2023-06-26T07:05:14;8.65;;;5.70;;
78027;SDS011;67235;45.638;11.714;2023-06-26T07:07:42;10.73;;;5.75;;
78027;SDS011;67235;45.638;11.714;2023-06-26T07:12:51;9.00;;;5.50;;
78027;SDS011;67235;45.638;11.714;2023-06-26T07:15:20;9.55;;;5.78;;
78027;SDS011;67235;45.638;11.714;2023-06-26T07:17:46;8.57;;;5.47;;
78027;SDS011;67235;45.638;11.714;2023-06-26T07:23:11;11.48;;;5.45;;
78027;SDS011;67235;45.638;11.714;2023-06-26T07:25:37;9.03;;;5.20;;
78027;SDS011;67235;45.638;11.714;2023-06-26T07:28:18;9.98;;;5.05;;
78027;SDS011;67235;45.638;11.714;2023-06-26T07:30:44;14.10;;;5.38;;
78027;SDS011;67235;45.638;11.714;2023-06-26T07:33:18;10.73;;;5.65;;
78027;SDS011;67235;45.638;11.714;2023-06-26T07:35:59;7.90;;;5.07;;
78027;SDS011;67235;45.638;11.714;2023-06-26T07:38:40;8.68;;;5.30;;
78027;SDS011;67235;45.638;11.714;2023-06-26T07:41:06;8.30;;;5.15;;
78027;SDS011;67235;45.638;11.714;2023-06-26T07:43:40;7.82;;;5.20;;
78027;SDS011;67235;45.638;11.714;2023-06-26T07:46:21;9.52;;;5.35;;
78027;SDS011;67235;45.638;11.714;2023-06-26T07:51:16;8.87;;;5.00;;
78027;SDS011;67235;45.638;11.714;2023-06-26T07:53:55;7.72;;;4.72;;
78027;SDS011;67235;45.638;11.714;2023-06-26T07:56:35;11.25;;;5.32;;
78027;SDS011;67235;45.638;11.714;2023-06-26T07:59:19;11.20;;;6.15;;
78027;SDS011;67235;45.638;11.714;2023-06-26T08:02:02;8.85;;;5.13;;
78027;SDS011;67235;45.638;11.714;2023-06-26T08:04:41;7.77;;;5.10;;
78027;SDS011;67235;45.638;11.714;2023-06-26T08:07:08;11.80;;;5.63;;
78027;SDS011;67235;45.638;11.714;2023-06-26T08:09:34;9.23;;;5.95;;
78027;SDS011;67235;45.638;11.714;2023-06-26T08:12:08;8.75;;;5.50;;
78027;SDS011;67235;45.638;11.714;2023-06-26T08:14:46;9.40;;;5.82;;
78027;SDS011;67235;45.638;11.714;2023-06-26T08:17:14;9.30;;;5.83;;
78027;SDS011;67235;45.638;11.714;2023-06-26T08:19:42;9.93;;;6.10;;
78027;SDS011;67235;45.638;11.714;2023-06-26T08:22:25;9.25;;;6.10;;
78027;SDS011;67235;45.638;11.714;2023-06-26T08:24:53;10.05;;;5.82;;
78027;SDS011;67235;45.638;11.714;2023-06-26T08:27:19;8.63;;;5.53;;
78027;SDS011;67235;45.638;11.714;2023-06-26T08:29:45;9.38;;;5.65;;
78027;SDS011;67235;45.638;11.714;2023-06-26T08:32:10;10.52;;;6.13;;
78027;SDS011;67235;45.638;11.714;2023-06-26T08:34:36;12.13;;;6.23;;
78027;SDS011;67235;45.638;11.714;2023-06-26T08:37:02;7.75;;;4.70;;
78027;SDS011;67235;45.638;11.714;2023-06-26T08:39:28;8.63;;;5.30;;
78027;SDS011;67235;45.638;11.714;2023-06-26T08:41:54;9.25;;;5.40;;
78027;SDS011;67235;45.638;11.714;2023-06-26T08:44:21;9.73;;;5.10;;
78027;SDS011;67235;45.638;11.714;2023-06-26T08:46:52;9.45;;;4.95;;
78027;SDS011;67235;45.638;11.714;2023-06-26T08:52:07;10.02;;;4.82;;
78027;SDS011;67235;45.638;11.714;2023-06-26T08:54:58;8.05;;;5.25;;
78027;SDS011;67235;45.638;11.714;2023-06-26T08:57:25;8.97;;;5.17;;
78027;SDS011;67235;45.638;11.714;2023-06-26T08:59:52;7.35;;;4.85;;
78027;SDS011;67235;45.638;11.714;2023-06-26T09:02:19;8.00;;;4.88;;
78027;SDS011;67235;45.638;11.714;2023-06-26T09:04:50;7.63;;;4.85;;
78027;SDS011;67235;45.638;11.714;2023-06-26T09:07:16;7.63;;;5.10;;
78027;SDS011;67235;45.638;11.714;2023-06-26T09:09:44;8.37;;;5.20;;
78027;SDS011;67235;45.638;11.714;2023-06-26T09:12:13;10.40;;;5.55;;
78027;SDS011;67235;45.638;11.714;2023-06-26T09:14:42;8.05;;;5.18;;
78027;SDS011;67235;45.638;11.714;2023-06-26T09:17:13;8.70;;;5.60;;
78027;SDS011;67235;45.638;11.714;2023-06-26T09:19:40;8.63;;;5.60;;
78027;SDS011;67235;45.638;11.714;2023-06-26T09:22:13;10.43;;;5.97;;
78027;SDS011;67235;45.638;11.714;2023-06-26T09:24:40;9.32;;;5.70;;
78027;SDS011;67235;45.638;11.714;2023-06-26T09:27:07;10.50;;;6.03;;
78027;SDS011;67235;45.638;11.714;2023-06-26T09:29:33;9.27;;;6.25;;
78027;SDS011;67235;45.638;11.714;2023-06-26T09:32:00;9.07;;;5.93;;
78027;SDS011;67235;45.638;11.714;2023-06-26T09:34:31;13.25;;;6.78;;
78027;SDS011;67235;45.638;11.714;2023-06-26T09:36:58;10.40;;;6.15;;
78027;SDS011;67235;45.638;11.714;2023-06-26T09:39:29;11.98;;;5.85;;
78027;SDS011;67235;45.638;11.714;2023-06-26T09:41:56;8.63;;;5.68;;
78027;SDS011;67235;45.638;11.714;2023-06-26T09:44:22;10.43;;;5.60;;
78027;SDS011;67235;45.638;11.714;2023-06-26T09:46:48;10.43;;;5.75;;
78027;SDS011;67235;45.638;11.714;2023-06-26T09:49:15;10.00;;;6.05;;
78027;SDS011;67235;45.638;11.714;2023-06-26T09:51:41;10.95;;;5.63;;
78027;SDS011;67235;45.638;11.714;2023-06-26T09:54:11;10.47;;;5.80;;
78027;SDS011;67235;45.638;11.714;2023-06-26T09:56:42;10.57;;;5.50;;
78027;SDS011;67235;45.638;11.714;2023-06-26T09:59:09;9.43;;;5.82;;
78027;SDS011;67235;45.638;11.714;2023-06-26T10:01:40;8.15;;;5.20;;
78027;SDS011;67235;45.638;11.714;2023-06-26T10:04:13;9.93;;;4.97;;
78027;SDS011;67235;45.638;11.714;2023-06-26T10:06:41;9.35;;;5.20;;
78027;SDS011;67235;45.638;11.714;2023-06-26T10:09:12;9.10;;;4.75;;
78027;SDS011;67235;45.638;11.714;2023-06-26T10:12:03;9.52;;;5.70;;
78027;SDS011;67235;45.638;11.714;2023-06-26T10:14:34;7.55;;;4.75;;
78027;SDS011;67235;45.638;11.714;2023-06-26T10:17:06;9.07;;;4.57;;
78027;SDS011;67235;45.638;11.714;2023-06-26T10:19:39;7.13;;;4.60;;
78027;SDS011;67235;45.638;11.714;2023-06-26T10:22:06;8.73;;;4.68;;
78027;SDS011;67235;45.638;11.714;2023-06-26T10:24:34;7.57;;;4.55;;
78027;SDS011;67235;45.638;11.714;2023-06-26T10:27:03;7.65;;;5.10;;
78027;SDS011;67235;45.638;11.714;2023-06-26T10:29:54;8.30;;;4.37;;
78027;SDS011;67235;45.638;11.714;2023-06-26T10:32:24;7.38;;;4.35;;
78027;SDS011;67235;45.638;11.714;2023-06-26T10:34:51;8.48;;;4.25;;
78027;SDS011;67235;45.638;11.714;2023-06-26T10:37:18;9.02;;;4.50;;
78027;SDS011;67235;45.638;11.714;2023-06-26T10:39:48;7.50;;;4.25;;
78027;SDS011;67235;45.638;11.714;2023-06-26T10:42:14;6.80;;;4.13;;
78027;SDS011;67235;45.638;11.714;2023-06-26T10:44:42;7.28;;;4.60;;
78027;SDS011;67235;45.638;11.714;2023-06-26T10:47:10;8.75;;;4.80;;
78027;SDS011;67235;45.638;11.714;2023-06-26T10:49:38;7.93;;;5.28;;
78027;SDS011;67235;45.638;11.714;2023-06-26T10:52:04;8.45;;;4.90;;
78027;SDS011;67235;45.638;11.714;2023-06-26T10:54:31;7.63;;;4.47;;
78027;SDS011;67235;45.638;11.714;2023-06-26T10:56:58;9.00;;;4.85;;
78027;SDS011;67235;45.638;11.714;2023-06-26T10:59:29;8.35;;;4.38;;
78027;SDS011;67235;45.638;11.714;2023-06-26T11:01:56;7.63;;;4.65;;
78027;SDS011;67235;45.638;11.714;2023-06-26T11:04:37;8.00;;;5.13;;
78027;SDS011;67235;45.638;11.714;2023-06-26T11:07:15;9.90;;;5.50;;
78027;SDS011;67235;45.638;11.714;2023-06-26T11:10:08;7.55;;;5.20;;
78027;SDS011;67235;45.638;11.714;2023-06-26T11:15:03;8.80;;;5.25;;
78027;SDS011;67235;45.638;11.714;2023-06-26T11:17:42;8.30;;;5.37;;
78027;SDS011;67235;45.638;11.714;2023-06-26T11:20:09;9.77;;;6.00;;
78027;SDS011;67235;45.638;11.714;2023-06-26T11:22:37;9.88;;;5.90;;
78027;SDS011;67235;45.638;11.714;2023-06-26T11:25:04;11.48;;;6.28;;
78027;SDS011;67235;45.638;11.714;2023-06-26T11:27:32;10.40;;;5.88;;
78027;SDS011;67235;45.638;11.714;2023-06-26T11:30:05;8.90;;;5.67;;
78027;SDS011;67235;45.638;11.714;2023-06-26T11:32:31;8.35;;;5.40;;
78027;SDS011;67235;45.638;11.714;2023-06-26T11:35:00;8.93;;;5.75;;
78027;SDS011;67235;45.638;11.714;2023-06-26T11:37:26;8.00;;;5.60;;
78027;SDS011;67235;45.638;11.714;2023-06-26T11:39:52;9.98;;;5.63;;
78027;SDS011;67235;45.638;11.714;2023-06-26T11:42:18;7.57;;;5.03;;
78027;SDS011;67235;45.638;11.714;2023-06-26T11:44:45;8.57;;;5.55;;
78027;SDS011;67235;45.638;11.714;2023-06-26T11:47:19;9.40;;;5.55;;
78027;SDS011;67235;45.638;11.714;2023-06-26T11:49:46;9.30;;;6.05;;
78027;SDS011;67235;45.638;11.714;2023-06-26T11:52:13;8.85;;;5.55;;
78027;SDS011;67235;45.638;11.714;2023-06-26T11:54:40;9.20;;;6.13;;
78027;SDS011;67235;45.638;11.714;2023-06-26T11:57:07;10.60;;;5.65;;
78027;SDS011;67235;45.638;11.714;2023-06-26T11:59:37;10.23;;;5.40;;
78027;SDS011;67235;45.638;11.714;2023-06-26T12:02:11;8.70;;;5.53;;
78027;SDS011;67235;45.638;11.714;2023-06-26T12:04:42;8.65;;;5.40;;
78027;SDS011;67235;45.638;11.714;2023-06-26T12:07:10;9.70;;;5.73;;
78027;SDS011;67235;45.638;11.714;2023-06-26T12:09:38;9.70;;;5.75;;
78027;SDS011;67235;45.638;11.714;2023-06-26T12:12:08;9.15;;;5.90;;
78027;SDS011;67235;45.638;11.714;2023-06-26T12:14:35;8.60;;;5.47;;
78027;SDS011;67235;45.638;11.714;2023-06-26T12:17:08;9.10;;;5.45;;
78027;SDS011;67235;45.638;11.714;2023-06-26T12:19:42;8.07;;;5.20;;
78027;SDS011;67235;45.638;11.714;2023-06-26T12:22:09;9.05;;;5.40;;
78027;SDS011;67235;45.638;11.714;2023-06-26T12:24:37;9.52;;;5.60;;
78027;SDS011;67235;45.638;11.714;2023-06-26T12:27:07;8.80;;;5.68;;
78027;SDS011;67235;45.638;11.714;2023-06-26T12:29:51;8.95;;;5.95;;
78027;SDS011;67235;45.638;11.714;2023-06-26T12:32:18;8.43;;;5.33;;
78027;SDS011;67235;45.638;11.714;2023-06-26T12:34:49;8.23;;;5.57;;
78027;SDS011;67235;45.638;11.714;2023-06-26T12:37:15;9.32;;;5.32;;
78027;SDS011;67235;45.638;11.714;2023-06-26T12:39:52;9.80;;;5.70;;
78027;SDS011;67235;45.638;11.714;2023-06-26T12:42:22;11.43;;;5.38;;
78027;SDS011;67235;45.638;11.714;2023-06-26T12:44:52;8.57;;;5.40;;
78027;SDS011;67235;45.638;11.714;2023-06-26T12:47:25;8.35;;;5.40;;
78027;SDS011;67235;45.638;11.714;2023-06-26T12:49:52;7.55;;;5.07;;
78027;SDS011;67235;45.638;11.714;2023-06-26T12:52:19;8.45;;;5.05;;
78027;SDS011;67235;45.638;11.714;2023-06-26T12:54:46;10.35;;;5.25;;
78027;SDS011;67235;45.638;11.714;2023-06-26T12:57:16;8.23;;;5.17;;
78027;SDS011;67235;45.638;11.714;2023-06-26T12:59:42;8.63;;;5.40;;
78027;SDS011;67235;45.638;11.714;2023-06-26T13:02:08;9.10;;;5.05;;
78027;SDS011;67235;45.638;11.714;2023-06-26T13:04:38;10.27;;;5.28;;
78027;SDS011;67235;45.638;11.714;2023-06-26T13:07:09;8.60;;;5.05;;
78027;SDS011;67235;45.638;11.714;2023-06-26T13:09:36;9.27;;;4.93;;
78027;SDS011;67235;45.638;11.714;2023-06-26T13:12:05;8.60;;;5.18;;
78027;SDS011;67235;45.638;11.714;2023-06-26T13:14:34;9.95;;;5.53;;
78027;SDS011;67235;45.638;11.714;2023-06-26T13:17:00;9.27;;;5.60;;
78027;SDS011;67235;45.638;11.714;2023-06-26T13:19:28;9.10;;;5.00;;
78027;SDS011;67235;45.638;11.714;2023-06-26T13:21:56;8.20;;;5.50;;
78027;SDS011;67235;45.638;11.714;2023-06-26T13:24:23;12.40;;;5.45;;
78027;SDS011;67235;45.638;11.714;2023-06-26T13:26:50;10.38;;;5.28;;
78027;SDS011;67235;45.638;11.714;2023-06-26T13:29:17;10.85;;;5.55;;
78027;SDS011;67235;45.638;11.714;2023-06-26T13:31:43;9.35;;;5.00;;
78027;SDS011;67235;45.638;11.714;2023-06-26T13:34:09;7.97;;;4.80;;
78027;SDS011;67235;45.638;11.714;2023-06-26T13:36:52;8.68;;;4.95;;
78027;SDS011;67235;45.638;11.714;2023-06-26T13:39:19;8.90;;;5.13;;
78027;SDS011;67235;45.638;11.714;2023-06-26T13:41:46;9.32;;;4.90;;
78027;SDS011;67235;45.638;11.714;2023-06-26T13:44:12;9.02;;;5.05;;
78027;SDS011;67235;45.638;11.714;2023-06-26T13:46:38;10.47;;;5.13;;
78027;SDS011;67235;45.638;11.714;2023-06-26T13:49:04;10.70;;;5.20;;
78027;SDS011;67235;45.638;11.714;2023-06-26T13:51:30;7.35;;;4.95;;
78027;SDS011;67235;45.638;11.714;2023-06-26T13:53:56;9.23;;;5.37;;
78027;SDS011;67235;45.638;11.714;2023-06-26T13:56:26;8.32;;;4.95;;
78027;SDS011;67235;45.638;11.714;2023-06-26T13:58:53;8.50;;;4.70;;
78027;SDS011;67235;45.638;11.714;2023-06-26T14:01:22;7.95;;;4.55;;
78027;SDS011;67235;45.638;11.714;2023-06-26T14:03:50;13.50;;;5.30;;
78027;SDS011;67235;45.638;11.714;2023-06-26T14:06:20;7.95;;;5.03;;
78027;SDS011;67235;45.638;11.714;2023-06-26T14:08:47;9.25;;;4.72;;
78027;SDS011;67235;45.638;11.714;2023-06-26T14:11:14;8.15;;;4.70;;
78027;SDS011;67235;45.638;11.714;2023-06-26T14:13:41;6.90;;;4.57;;
78027;SDS011;67235;45.638;11.714;2023-06-26T14:16:11;10.03;;;4.60;;
78027;SDS011;67235;45.638;11.714;2023-06-26T14:18:37;6.93;;;4.10;;
78027;SDS011;67235;45.638;11.714;2023-06-26T14:21:06;6.63;;;4.10;;
78027;SDS011;67235;45.638;11.714;2023-06-26T14:23:32;8.68;;;3.97;;
78027;SDS011;67235;45.638;11.714;2023-06-26T14:25:59;6.50;;;4.15;;
78027;SDS011;67235;45.638;11.714;2023-06-26T14:28:25;12.40;;;4.27;;
78027;SDS011;67235;45.638;11.714;2023-06-26T14:30:52;6.78;;;3.53;;
78027;SDS011;67235;45.638;11.714;2023-06-26T14:33:19;7.93;;;3.83;;
78027;SDS011;67235;45.638;11.714;2023-06-26T14:35:45;6.23;;;3.57;;
78027;SDS011;67235;45.638;11.714;2023-06-26T14:38:11;7.97;;;3.97;;
78027;SDS011;67235;45.638;11.714;2023-06-26T14:40:36;10.10;;;4.13;;
78027;SDS011;67235;45.638;11.714;2023-06-26T14:43:02;8.63;;;4.33;;
78027;SDS011;67235;45.638;11.714;2023-06-26T14:45:28;7.77;;;4.27;;
78027;SDS011;67235;45.638;11.714;2023-06-26T14:47:54;8.40;;;4.22;;
78027;SDS011;67235;45.638;11.714;2023-06-26T14:50:31;6.30;;;3.67;;
78027;SDS011;67235;45.638;11.714;2023-06-26T14:52:57;7.23;;;3.40;;
78027;SDS011;67235;45.638;11.714;2023-06-26T14:55:23;10.02;;;3.97;;
78027;SDS011;67235;45.638;11.714;2023-06-26T14:57:49;7.20;;;3.80;;
78027;SDS011;67235;45.638;11.714;2023-06-26T15:00:15;7.00;;;3.53;;
78027;SDS011;67235;45.638;11.714;2023-06-26T15:02:41;9.27;;;3.77;;
78027;SDS011;67235;45.638;11.714;2023-06-26T15:05:07;10.00;;;4.43;;
78027;SDS011;67235;45.638;11.714;2023-06-26T15:07:35;8.07;;;4.00;;
78027;SDS011;67235;45.638;11.714;2023-06-26T15:10:01;7.85;;;3.80;;
78027;SDS011;67235;45.638;11.714;2023-06-26T15:12:27;6.28;;;3.72;;
78027;SDS011;67235;45.638;11.714;2023-06-26T15:14:53;7.73;;;3.80;;
78027;SDS011;67235;45.638;11.714;2023-06-26T15:17:20;7.40;;;4.18;;
78027;SDS011;67235;45.638;11.714;2023-06-26T15:19:45;7.07;;;3.60;;
78027;SDS011;67235;45.638;11.714;2023-06-26T15:22:11;7.30;;;3.87;;
78027;SDS011;67235;45.638;11.714;2023-06-26T15:24:37;9.13;;;4.20;;
78027;SDS011;67235;45.638;11.714;2023-06-26T15:27:03;8.15;;;5.18;;
78027;SDS011;67235;45.638;11.714;2023-06-26T15:29:29;7.47;;;3.97;;
78027;SDS011;67235;45.638;11.714;2023-06-26T15:31:58;8.33;;;3.70;;
78027;SDS011;67235;45.638;11.714;2023-06-26T15:34:24;7.63;;;3.75;;
78027;SDS011;67235;45.638;11.714;2023-06-26T15:36:50;8.52;;;3.83;;
78027;SDS011;67235;45.638;11.714;2023-06-26T15:39:16;7.50;;;3.53;;
78027;SDS011;67235;45.638;11.714;2023-06-26T15:41:42;7.82;;;3.90;;
78027;SDS011;67235;45.638;11.714;2023-06-26T15:44:09;8.70;;;3.90;;
78027;SDS011;67235;45.638;11.714;2023-06-26T15:46:35;6.85;;;3.42;;
78027;SDS011;67235;45.638;11.714;2023-06-26T15:49:01;6.73;;;3.60;;
78027;SDS011;67235;45.638;11.714;2023-06-26T15:51:26;8.57;;;3.83;;
78027;SDS011;67235;45.638;11.714;2023-06-26T15:53:52;7.20;;;3.90;;
78027;SDS011;67235;45.638;11.714;2023-06-26T15:56:22;9.47;;;4.03;;
78027;SDS011;67235;45.638;11.714;2023-06-26T15:58:48;6.50;;;3.83;;
78027;SDS011;67235;45.638;11.714;2023-06-26T16:01:13;6.78;;;3.75;;
78027;SDS011;67235;45.638;11.714;2023-06-26T16:03:40;6.97;;;4.00;;
78027;SDS011;67235;45.638;11.714;2023-06-26T16:06:06;8.05;;;3.72;;
78027;SDS011;67235;45.638;11.714;2023-06-26T16:08:34;6.13;;;3.60;;
78027;SDS011;67235;45.638;11.714;2023-06-26T16:11:00;6.57;;;3.65;;
78027;SDS011;67235;45.638;11.714;2023-06-26T16:13:27;7.45;;;3.58;;
78027;SDS011;67235;45.638;11.714;2023-06-26T16:15:53;6.33;;;3.40;;
78027;SDS011;67235;45.638;11.714;2023-06-26T16:18:18;7.45;;;3.70;;
78027;SDS011;67235;45.638;11.714;2023-06-26T16:20:44;7.22;;;4.28;;
78027;SDS011;67235;45.638;11.714;2023-06-26T16:23:11;7.47;;;4.07;;
78027;SDS011;67235;45.638;11.714;2023-06-26T16:25:37;6.27;;;3.40;;
78027;SDS011;67235;45.638;11.714;2023-06-26T16:28:03;7.32;;;3.92;;
78027;SDS011;67235;45.638;11.714;2023-06-26T16:30:29;8.30;;;3.95;;
78027;SDS011;67235;45.638;11.714;2023-06-26T16:32:55;6.43;;;3.50;;
78027;SDS011;67235;45.638;11.714;2023-06-26T16:35:24;7.72;;;4.03;;
78027;SDS011;67235;45.638;11.714;2023-06-26T16:37:55;6.88;;;3.78;;
78027;SDS011;67235;45.638;11.714;2023-06-26T16:40:21;7.53;;;3.90;;
78027;SDS011;67235;45.638;11.714;2023-06-26T16:42:48;8.25;;;3.65;;
78027;SDS011;67235;45.638;11.714;2023-06-26T16:45:14;6.33;;;3.57;;
78027;SDS011;67235;45.638;11.714;2023-06-26T16:47:41;8.02;;;3.67;;
78027;SDS011;67235;45.638;11.714;2023-06-26T16:50:07;6.20;;;3.50;;
78027;SDS011;67235;45.638;11.714;2023-06-26T16:52:33;6.80;;;3.53;;
78027;SDS011;67235;45.638;11.714;2023-06-26T16:54:59;7.87;;;4.00;;
78027;SDS011;67235;45.638;11.714;2023-06-26T16:57:24;9.68;;;3.55;;
78027;SDS011;67235;45.638;11.714;2023-06-26T16:59:50;7.05;;;3.80;;
78027;SDS011;67235;45.638;11.714;2023-06-26T17:02:17;7.93;;;3.83;;
78027;SDS011;67235;45.638;11.714;2023-06-26T17:04:44;7.60;;;4.07;;
78027;SDS011;67235;45.638;11.714;2023-06-26T17:07:10;6.57;;;4.10;;
78027;SDS011;67235;45.638;11.714;2023-06-26T17:09:36;8.75;;;3.72;;
78027;SDS011;67235;45.638;11.714;2023-06-26T17:12:02;7.67;;;4.50;;
78027;SDS011;67235;45.638;11.714;2023-06-26T17:14:28;9.05;;;3.90;;
78027;SDS011;67235;45.638;11.714;2023-06-26T17:16:54;6.68;;;3.97;;
78027;SDS011;67235;45.638;11.714;2023-06-26T17:19:20;6.17;;;3.80;;
78027;SDS011;67235;45.638;11.714;2023-06-26T17:21:45;7.27;;;4.03;;
78027;SDS011;67235;45.638;11.714;2023-06-26T17:24:13;10.20;;;4.50;;
78027;SDS011;67235;45.638;11.714;2023-06-26T17:26:42;9.15;;;4.22;;
78027;SDS011;67235;45.638;11.714;2023-06-26T17:29:08;8.13;;;4.57;;
78027;SDS011;67235;45.638;11.714;2023-06-26T17:31:34;11.20;;;4.90;;
78027;SDS011;67235;45.638;11.714;2023-06-26T17:34:00;13.88;;;5.07;;
78027;SDS011;67235;45.638;11.714;2023-06-26T17:36:26;8.90;;;4.60;;
78027;SDS011;67235;45.638;11.714;2023-06-26T17:38:52;8.23;;;4.57;;
78027;SDS011;67235;45.638;11.714;2023-06-26T17:41:21;8.85;;;4.90;;
78027;SDS011;67235;45.638;11.714;2023-06-26T17:43:47;7.53;;;4.50;;
78027;SDS011;67235;45.638;11.714;2023-06-26T17:46:13;8.67;;;4.53;;
78027;SDS011;67235;45.638;11.714;2023-06-26T17:48:39;7.30;;;4.78;;
78027;SDS011;67235;45.638;11.714;2023-06-26T17:51:05;8.20;;;4.45;;
78027;SDS011;67235;45.638;11.714;2023-06-26T17:53:31;6.70;;;4.20;;
78027;SDS011;67235;45.638;11.714;2023-06-26T17:55:56;9.75;;;4.97;;
78027;SDS011;67235;45.638;11.714;2023-06-26T17:58:23;9.07;;;4.63;;
78027;SDS011;67235;45.638;11.714;2023-06-26T18:00:49;8.17;;;5.00;;
78027;SDS011;67235;45.638;11.714;2023-06-26T18:03:15;9.68;;;5.07;;
78027;SDS011;67235;45.638;11.714;2023-06-26T18:05:40;12.02;;;5.18;;
78027;SDS011;67235;45.638;11.714;2023-06-26T18:08:07;8.23;;;4.85;;
78027;SDS011;67235;45.638;11.714;2023-06-26T18:10:33;9.17;;;5.07;;
78027;SDS011;67235;45.638;11.714;2023-06-26T18:12:59;9.75;;;5.38;;
78027;SDS011;67235;45.638;11.714;2023-06-26T18:15:25;10.05;;;4.93;;
78027;SDS011;67235;45.638;11.714;2023-06-26T18:17:51;9.17;;;4.93;;
78027;SDS011;67235;45.638;11.714;2023-06-26T18:20:17;9.27;;;4.78;;
78027;SDS011;67235;45.638;11.714;2023-06-26T18:22:43;8.48;;;4.72;;
78027;SDS011;67235;45.638;11.714;2023-06-26T18:25:09;11.03;;;4.57;;
78027;SDS011;67235;45.638;11.714;2023-06-26T18:27:35;8.98;;;4.78;;